Time;durP1;ratioP1;P1;durP2;ratioP2;P2;SDS_P1;SDS_P2;PMS_P1;PMS_P2;Temp;Humidity;BMP_temperature;BMP_pressure;BME280_temperature;BME280_humidity;BME280_pressure;Samples;Min_cycle;Max_cycle;Signal;HPM_P1;HPM_P2
2024/02/18 00:00:06;;;;;;;23.00;16.40;;;;;;;;;;5094242;28;20193;-84
2024/02/18 00:02:34;;;;;;;24.50;15.20;;;;;;;;;;5109043;28;20199;-85
2024/02/18 00:05:01;;;;;;;20.93;13.47;;;;;;;;;;5081601;28;20196;-84
2024/02/18 00:07:28;;;;;;;23.03;15.77;;;;;;;;;;5094988;28;20203;-84
2024/02/18 00:09:56;;;;;;;19.23;13.83;;;;;;;;;;5095627;28;20200;-85
2024/02/18 00:12:24;;;;;;;18.93;12.43;;;;;;;;;;5095695;28;20207;-85
2024/02/18 00:14:51;;;;;;;17.67;12.23;;;;;;;;;;5093711;28;20210;-85
2024/02/18 00:17:18;;;;;;;16.73;11.83;;;;;;;;;;5095970;28;20204;-85
2024/02/18 00:19:45;;;;;;;18.77;11.67;;;;;;;;;;5093865;28;20200;-85
2024/02/18 00:22:11;;;;;;;19.10;12.53;;;;;;;;;;5094873;28;20237;-85
2024/02/18 00:24:39;;;;;;;20.00;12.43;;;;;;;;;;5094968;28;20767;-85
2024/02/18 00:27:09;;;;;;;21.40;12.87;;;;;;;;;;5095729;28;20272;-84
2024/02/18 00:29:36;;;;;;;19.67;12.33;;;;;;;;;;5093710;28;20293;-85
2024/02/18 00:32:03;;;;;;;20.57;13.37;;;;;;;;;;5093785;28;20193;-85
2024/02/18 00:34:30;;;;;;;17.87;12.63;;;;;;;;;;5095121;28;20327;-84
2024/02/18 00:36:57;;;;;;;17.47;13.00;;;;;;;;;;5093273;28;20651;-85
2024/02/18 00:39:23;;;;;;;19.87;12.40;;;;;;;;;;5095628;28;20529;-85
2024/02/18 00:41:50;;;;;;;17.70;12.03;;;;;;;;;;5094756;28;20216;-85
2024/02/18 00:44:23;;;;;;;18.53;13.37;;;;;;;;;;5093848;28;20222;-85
2024/02/18 00:46:50;;;;;;;24.00;12.70;;;;;;;;;;5094412;28;20216;-85
2024/02/18 00:49:16;;;;;;;18.47;11.57;;;;;;;;;;5093019;28;20218;-85
2024/02/18 00:51:43;;;;;;;21.30;12.27;;;;;;;;;;5094796;28;20722;-85
2024/02/18 00:54:10;;;;;;;21.70;12.47;;;;;;;;;;5094687;28;20200;-85
2024/02/18 00:56:39;;;;;;;21.97;13.67;;;;;;;;;;5095008;28;20261;-85
2024/02/18 00:59:06;;;;;;;22.13;12.40;;;;;;;;;;5094358;28;20196;-84
2024/02/18 01:01:34;;;;;;;18.80;11.63;;;;;;;;;;5093060;28;21090;-85
2024/02/18 01:04:01;;;;;;;21.53;12.87;;;;;;;;;;5093628;28;20249;-85
2024/02/18 01:06:28;;;;;;;18.37;13.50;;;;;;;;;;5092991;28;20192;-83
2024/02/18 01:08:54;;;;;;;19.00;11.60;;;;;;;;;;5094074;28;20696;-85
2024/02/18 01:11:21;;;;;;;18.37;12.50;;;;;;;;;;5092131;28;20211;-86
2024/02/18 01:13:48;;;;;;;21.77;12.57;;;;;;;;;;5073882;28;20204;-85
2024/02/18 01:16:15;;;;;;;15.20;11.40;;;;;;;;;;5073756;28;20200;-85
2024/02/18 01:18:44;;;;;;;22.43;14.27;;;;;;;;;;5073860;28;20212;-84
2024/02/18 01:21:11;;;;;;;19.70;12.50;;;;;;;;;;5073606;28;20752;-84
2024/02/18 01:23:41;;;;;;;15.70;10.97;;;;;;;;;;5074387;28;20228;-85
2024/02/18 01:26:09;;;;;;;20.00;13.30;;;;;;;;;;5073785;28;20205;-84
2024/02/18 01:28:35;;;;;;;17.73;12.70;;;;;;;;;;5086872;28;20556;-85
2024/02/18 01:31:02;;;;;;;17.63;12.30;;;;;;;;;;5112385;28;20211;-86
2024/02/18 01:33:30;;;;;;;13.50;10.73;;;;;;;;;;5093774;28;20319;-85
2024/02/18 01:35:58;;;;;;;16.27;11.70;;;;;;;;;;5094058;28;20625;-85
2024/02/18 01:38:25;;;;;;;21.77;12.17;;;;;;;;;;5092052;28;20681;-85
2024/02/18 01:40:51;;;;;;;17.87;11.83;;;;;;;;;;5102627;28;20246;-85
2024/02/18 01:43:18;;;;;;;20.77;12.60;;;;;;;;;;5093257;28;20192;-85
2024/02/18 01:45:46;;;;;;;17.90;12.43;;;;;;;;;;5093697;28;20287;-85
2024/02/18 01:48:14;;;;;;;17.20;12.53;;;;;;;;;;5093505;28;20200;-85
2024/02/18 01:50:41;;;;;;;21.83;12.10;;;;;;;;;;5093335;28;20207;-85
2024/02/18 01:53:09;;;;;;;21.27;13.07;;;;;;;;;;5093516;28;20207;-85
2024/02/18 01:55:36;;;;;;;16.43;11.37;;;;;;;;;;5093420;28;20215;-85
2024/02/18 01:58:04;;;;;;;21.60;14.20;;;;;;;;;;5091837;28;20196;-86
2024/02/18 02:00:31;;;;;;;22.87;12.60;;;;;;;;;;5094262;28;20200;-85
2024/02/18 02:02:58;;;;;;;18.70;11.77;;;;;;;;;;5093350;28;20717;-85
2024/02/18 02:05:26;;;;;;;16.27;12.50;;;;;;;;;;5093338;28;20210;-86
2024/02/18 02:07:53;;;;;;;20.73;12.37;;;;;;;;;;5093296;28;20204;-86
2024/02/18 02:10:22;;;;;;;19.73;13.50;;;;;;;;;;5092010;28;20593;-85
2024/02/18 02:12:49;;;;;;;16.83;12.10;;;;;;;;;;5092333;28;20231;-85
2024/02/18 02:15:16;;;;;;;23.87;14.37;;;;;;;;;;5092241;28;20555;-86
2024/02/18 02:17:42;;;;;;;21.93;13.27;;;;;;;;;;5092910;28;20200;-85
2024/02/18 02:20:10;;;;;;;26.77;14.87;;;;;;;;;;5093162;28;20200;-85
2024/02/18 02:22:37;;;;;;;20.33;13.03;;;;;;;;;;5092822;28;20224;-85
2024/02/18 02:25:05;;;;;;;28.57;15.20;;;;;;;;;;5092137;28;20196;-85
2024/02/18 02:27:37;;;;;;;19.77;12.90;;;;;;;;;;5092628;28;20662;-85
2024/02/18 02:30:09;;;;;;;22.50;14.53;;;;;;;;;;5091751;28;20203;-85
2024/02/18 02:32:36;;;;;;;20.53;13.83;;;;;;;;;;5093514;28;20196;-85
2024/02/18 02:35:03;;;;;;;22.13;15.50;;;;;;;;;;5092488;28;20582;-85
2024/02/18 02:37:30;;;;;;;23.80;14.50;;;;;;;;;;5092633;28;20571;-84
2024/02/18 02:39:57;;;;;;;23.47;13.77;;;;;;;;;;5084059;28;20201;-85
2024/02/18 02:42:24;;;;;;;19.73;13.57;;;;;;;;;;5072845;28;20224;-85
2024/02/18 02:44:50;;;;;;;21.17;12.83;;;;;;;;;;5086143;28;20199;-86
2024/02/18 02:47:19;;;;;;;18.97;13.07;;;;;;;;;;5092614;28;20204;-85
2024/02/18 02:49:45;;;;;;;20.23;13.10;;;;;;;;;;5091012;28;20199;-85
2024/02/18 02:52:12;;;;;;;22.10;13.67;;;;;;;;;;5092241;28;20196;-85
2024/02/18 02:54:39;;;;;;;25.07;12.77;;;;;;;;;;5091477;28;20247;-85
2024/02/18 02:57:08;;;;;;;22.63;13.50;;;;;;;;;;5090964;28;20751;-86
2024/02/18 02:59:35;;;;;;;19.40;13.30;;;;;;;;;;5093074;28;20257;-85
2024/02/18 03:02:02;;;;;;;19.97;12.70;;;;;;;;;;5091496;28;20224;-85
2024/02/18 03:04:30;;;;;;;19.57;13.90;;;;;;;;;;5092138;28;20200;-85
2024/02/18 03:06:57;;;;;;;23.33;13.50;;;;;;;;;;5092484;28;20189;-86
2024/02/18 03:09:23;;;;;;;29.53;16.73;;;;;;;;;;5092877;28;20200;-86
2024/02/18 03:11:50;;;;;;;26.07;17.30;;;;;;;;;;5092985;28;20200;-85
2024/02/18 03:14:17;;;;;;;28.20;15.67;;;;;;;;;;5091281;28;20200;-85
2024/02/18 03:16:44;;;;;;;27.53;16.20;;;;;;;;;;5092106;28;20203;-85
2024/02/18 03:19:11;;;;;;;26.50;18.43;;;;;;;;;;5091550;28;20192;-85
2024/02/18 03:21:39;;;;;;;29.97;18.47;;;;;;;;;;5091614;28;20657;-85
2024/02/18 03:24:10;;;;;;;25.33;16.80;;;;;;;;;;5091720;28;20585;-85
2024/02/18 03:26:40;;;;;;;27.87;16.30;;;;;;;;;;5090732;28;20201;-85
2024/02/18 03:29:11;;;;;;;26.87;16.47;;;;;;;;;;5092120;28;20277;-85
2024/02/18 03:31:37;;;;;;;26.03;16.10;;;;;;;;;;5092615;28;20296;-85
2024/02/18 03:34:04;;;;;;;25.40;16.50;;;;;;;;;;5092022;28;20223;-85
2024/02/18 03:36:32;;;;;;;27.00;16.83;;;;;;;;;;5092644;28;20204;-85
2024/02/18 03:39:00;;;;;;;36.07;18.30;;;;;;;;;;5108984;28;20738;-85
2024/02/18 03:41:27;;;;;;;25.43;16.17;;;;;;;;;;5105529;28;20207;-85
2024/02/18 03:43:54;;;;;;;29.73;17.33;;;;;;;;;;5091698;28;20200;-85
2024/02/18 03:46:20;;;;;;;27.13;17.00;;;;;;;;;;5090376;28;20663;-85
2024/02/18 03:48:47;;;;;;;30.17;16.50;;;;;;;;;;5091208;28;20675;-85
2024/02/18 03:51:14;;;;;;;39.93;21.13;;;;;;;;;;5090747;28;20200;-84
2024/02/18 03:53:41;;;;;;;29.23;18.07;;;;;;;;;;5091090;28;20211;-85
2024/02/18 03:56:09;;;;;;;38.40;18.17;;;;;;;;;;5091565;28;20196;-84
2024/02/18 03:58:36;;;;;;;38.70;19.43;;;;;;;;;;5091559;28;20203;-84
2024/02/18 04:01:03;;;;;;;44.70;18.37;;;;;;;;;;5091642;28;20631;-85
2024/02/18 04:03:30;;;;;;;32.77;18.27;;;;;;;;;;5091880;28;20693;-85
2024/02/18 04:05:56;;;;;;;49.33;19.83;;;;;;;;;;5091694;28;20204;-84
2024/02/18 04:08:23;;;;;;;31.77;17.03;;;;;;;;;;5091744;28;20208;-83
2024/02/18 04:10:50;;;;;;;41.10;17.90;;;;;;;;;;5092225;28;20219;-85
2024/02/18 04:13:18;;;;;;;39.50;15.93;;;;;;;;;;5094069;28;20257;-86
2024/02/18 04:15:45;;;;;;;36.83;19.53;;;;;;;;;;5095555;28;20206;-86
2024/02/18 04:18:12;;;;;;;32.63;16.77;;;;;;;;;;5096051;28;20671;-85
2024/02/18 04:20:41;;;;;;;34.20;17.20;;;;;;;;;;5095228;28;20245;-86
2024/02/18 04:23:08;;;;;;;36.37;17.60;;;;;;;;;;5093582;28;20277;-86
2024/02/18 04:25:35;;;;;;;36.73;20.03;;;;;;;;;;5095160;28;20572;-86
2024/02/18 04:28:01;;;;;;;46.90;18.37;;;;;;;;;;5095336;28;20196;-86
2024/02/18 04:30:29;;;;;;;45.57;17.10;;;;;;;;;;5095394;28;20203;-86
2024/02/18 04:32:56;;;;;;;52.17;15.83;;;;;;;;;;5094081;28;20316;-85
2024/02/18 04:35:23;;;;;;;44.97;20.23;;;;;;;;;;5095233;28;20200;-85
2024/02/18 04:37:50;;;;;;;32.53;18.90;;;;;;;;;;5095447;28;20612;-86
2024/02/18 04:40:17;;;;;;;43.57;20.53;;;;;;;;;;5095192;28;20612;-86
2024/02/18 04:42:44;;;;;;;42.63;19.33;;;;;;;;;;5095625;28;20266;-86
2024/02/18 04:45:11;;;;;;;35.80;17.13;;;;;;;;;;5093644;28;20188;-87
2024/02/18 04:47:39;;;;;;;31.93;17.83;;;;;;;;;;5094836;28;20200;-86
2024/02/18 04:50:07;;;;;;;41.17;15.53;;;;;;;;;;5095665;28;20199;-85
2024/02/18 04:52:35;;;;;;;53.63;16.67;;;;;;;;;;5099227;28;20223;-86
2024/02/18 04:55:02;;;;;;;30.67;14.27;;;;;;;;;;5074154;28;20193;-85
2024/02/18 04:57:29;;;;;;;26.07;12.97;;;;;;;;;;5084995;28;20279;-86
2024/02/18 04:59:56;;;;;;;44.27;15.70;;;;;;;;;;5094099;28;20296;-85
2024/02/18 05:02:23;;;;;;;28.17;16.57;;;;;;;;;;5094284;28;20231;-85
2024/02/18 05:04:51;;;;;;;41.87;17.73;;;;;;;;;;5094273;28;20226;-86
2024/02/18 05:07:18;;;;;;;40.23;16.50;;;;;;;;;;5094953;28;20200;-85
2024/02/18 05:09:45;;;;;;;39.73;17.07;;;;;;;;;;5094794;28;20200;-84
2024/02/18 05:12:11;;;;;;;27.33;14.63;;;;;;;;;;5092915;28;20200;-85
2024/02/18 05:14:41;;;;;;;26.53;13.83;;;;;;;;;;5094485;28;20196;-86
2024/02/18 05:17:08;;;;;;;23.43;13.53;;;;;;;;;;5094543;28;20196;-86
2024/02/18 05:19:35;;;;;;;26.43;15.40;;;;;;;;;;5094368;28;20273;-86
2024/02/18 05:22:04;;;;;;;56.60;16.33;;;;;;;;;;5094374;28;20220;-85
2024/02/18 05:24:32;;;;;;;39.90;16.53;;;;;;;;;;5092678;28;20684;-86
2024/02/18 05:26:59;;;;;;;40.77;16.13;;;;;;;;;;5093889;28;20626;-86
2024/02/18 05:29:26;;;;;;;27.37;14.20;;;;;;;;;;5094106;28;20200;-86
2024/02/18 05:31:53;;;;;;;38.53;14.73;;;;;;;;;;5094370;28;20543;-86
2024/02/18 05:34:19;;;;;;;38.90;16.00;;;;;;;;;;5093768;28;20842;-86
2024/02/18 05:36:46;;;;;;;34.97;17.30;;;;;;;;;;5094007;28;20196;-86
2024/02/18 05:39:15;;;;;;;28.43;12.77;;;;;;;;;;5093914;28;20193;-86
2024/02/18 05:41:41;;;;;;;31.80;15.23;;;;;;;;;;5094351;28;20200;-87
2024/02/18 05:44:08;;;;;;;30.43;16.07;;;;;;;;;;5093744;28;20223;-87
2024/02/18 05:46:35;;;;;;;45.80;13.33;;;;;;;;;;5094102;28;20200;-87
2024/02/18 05:49:02;;;;;;;31.97;12.37;;;;;;;;;;5094126;28;20222;-87
2024/02/18 05:51:31;;;;;;;35.93;16.73;;;;;;;;;;5093771;28;20609;-87
2024/02/18 05:53:58;;;;;;;31.10;11.97;;;;;;;;;;5093342;28;20740;-86
2024/02/18 05:56:26;;;;;;;26.57;12.30;;;;;;;;;;5072591;28;20565;-86
2024/02/18 05:58:53;;;;;;;36.70;12.90;;;;;;;;;;5087127;28;20214;-86
2024/02/18 06:01:20;;;;;;;32.90;17.17;;;;;;;;;;5092930;28;20207;-86
2024/02/18 06:03:47;;;;;;;35.23;13.63;;;;;;;;;;5092870;28;20689;-87
2024/02/18 06:06:14;;;;;;;21.33;13.43;;;;;;;;;;5093655;28;20287;-86
2024/02/18 06:08:41;;;;;;;26.00;13.47;;;;;;;;;;5092037;28;20663;-86
2024/02/18 06:11:08;;;;;;;25.63;14.57;;;;;;;;;;5093368;28;20548;-86
2024/02/18 06:13:36;;;;;;;26.60;12.97;;;;;;;;;;5093617;28;20200;-86
2024/02/18 06:16:04;;;;;;;40.40;14.10;;;;;;;;;;5091987;28;20203;-86
2024/02/18 06:18:31;;;;;;;25.77;16.83;;;;;;;;;;5093568;28;20193;-85
2024/02/18 06:20:57;;;;;;;32.67;19.60;;;;;;;;;;5093156;28;20668;-85
2024/02/18 06:23:25;;;;;;;19.40;11.60;;;;;;;;;;5090258;28;20582;-82
2024/02/18 06:25:52;;;;;;;23.00;11.37;;;;;;;;;;5092736;28;20200;-81
2024/02/18 06:28:19;;;;;;;17.83;11.73;;;;;;;;;;5091634;28;20208;-81
2024/02/18 06:30:47;;;;;;;27.30;12.77;;;;;;;;;;5104667;28;20659;-80
2024/02/18 06:33:14;;;;;;;36.03;14.23;;;;;;;;;;5092205;28;20228;-84
2024/02/18 06:39:25;;;;;;;27.00;16.10;;;;;;;;;;5092642;28;20213;-84
2024/02/18 06:48:43;;;;;;;20.57;12.33;;;;;;;;;;5095071;28;20188;-86
2024/02/18 06:54:32;;;;;;;25.10;15.30;;;;;;;;;;5092885;28;20171;-85
2024/02/18 07:00:20;;;;;;;22.97;15.57;;;;;;;;;;5092444;28;20333;-87
2024/02/18 07:03:13;;;;;;;26.33;17.90;;;;;;;;;;5092243;28;20222;-86
2024/02/18 07:05:42;;;;;;;24.07;15.97;;;;;;;;;;5093030;28;20192;-87
2024/02/18 07:08:12;;;;;;;24.53;17.07;;;;;;;;;;5091838;28;20196;-86
2024/02/18 07:10:39;;;;;;;22.50;17.03;;;;;;;;;;5092275;28;20695;-86
2024/02/18 07:13:07;;;;;;;31.80;20.00;;;;;;;;;;5091937;28;20196;-86
2024/02/18 07:15:33;;;;;;;40.03;23.70;;;;;;;;;;5092288;28;20223;-85
2024/02/18 07:18:01;;;;;;;34.30;22.50;;;;;;;;;;5091782;28;20735;-87
2024/02/18 07:20:27;;;;;;;26.17;15.83;;;;;;;;;;5104742;28;20199;-85
2024/02/18 07:22:57;;;;;;;27.70;15.47;;;;;;;;;;5112453;28;20222;-85
2024/02/18 07:25:24;;;;;;;23.93;16.67;;;;;;;;;;5112107;28;20191;-86
2024/02/18 07:27:50;;;;;;;27.87;15.00;;;;;;;;;;5082249;28;20629;-87
2024/02/18 07:30:17;;;;;;;21.27;13.80;;;;;;;;;;5100404;28;20728;-85
2024/02/18 07:32:44;;;;;;;23.10;12.17;;;;;;;;;;5102572;28;20280;-85
2024/02/18 07:35:11;;;;;;;17.67;13.37;;;;;;;;;;5089457;28;20616;-88
2024/02/18 07:37:38;;;;;;;29.60;15.00;;;;;;;;;;5071559;28;20201;-87
2024/02/18 07:40:10;;;;;;;28.07;16.97;;;;;;;;;;5084280;28;20192;-87
2024/02/18 07:42:37;;;;;;;41.93;24.70;;;;;;;;;;5091243;28;20200;-89
2024/02/18 07:45:05;;;;;;;37.17;22.00;;;;;;;;;;5082281;28;20669;-88
2024/02/18 07:47:32;;;;;;;35.37;22.60;;;;;;;;;;5097165;28;20201;-88
2024/02/18 07:49:59;;;;;;;26.83;17.70;;;;;;;;;;5076912;28;20208;-88
2024/02/18 07:52:26;;;;;;;24.63;19.57;;;;;;;;;;5095427;28;20249;-88
2024/02/18 07:54:52;;;;;;;20.50;16.03;;;;;;;;;;5095726;28;20200;-86
2024/02/18 07:57:21;;;;;;;21.93;15.90;;;;;;;;;;5092337;28;20200;-83
2024/02/18 07:59:48;;;;;;;21.70;16.50;;;;;;;;;;5094654;28;20207;-83
2024/02/18 08:02:15;;;;;;;26.17;18.37;;;;;;;;;;5093796;28;20196;-85
2024/02/18 08:04:41;;;;;;;19.50;15.00;;;;;;;;;;5094484;28;20224;-85
2024/02/18 08:07:08;;;;;;;31.07;20.77;;;;;;;;;;5093965;28;20530;-84
2024/02/18 08:09:35;;;;;;;25.17;18.20;;;;;;;;;;5095692;28;20204;-83
2024/02/18 08:12:02;;;;;;;26.00;18.77;;;;;;;;;;5094142;28;20611;-84
2024/02/18 08:14:30;;;;;;;22.43;16.00;;;;;;;;;;5094277;28;20206;-83
2024/02/18 08:16:57;;;;;;;19.43;14.57;;;;;;;;;;5094093;28;20557;-84
2024/02/18 08:19:24;;;;;;;20.57;14.20;;;;;;;;;;5093997;28;20290;-83
2024/02/18 08:21:51;;;;;;;20.70;13.67;;;;;;;;;;5093638;28;20203;-84
2024/02/18 08:24:18;;;;;;;17.10;12.50;;;;;;;;;;5114754;28;20585;-84
2024/02/18 08:26:45;;;;;;;16.03;12.53;;;;;;;;;;5098196;28;20693;-84
2024/02/18 08:29:11;;;;;;;17.63;13.30;;;;;;;;;;5093428;28;20589;-85
2024/02/18 08:31:45;;;;;;;14.17;12.03;;;;;;;;;;5098712;28;20191;-84
2024/02/18 08:34:12;;;;;;;15.63;11.30;;;;;;;;;;5097993;28;20250;-88
2024/02/18 08:36:39;;;;;;;13.67;10.77;;;;;;;;;;5076379;28;20287;-88
2024/02/18 08:39:09;;;;;;;13.00;11.23;;;;;;;;;;5094906;28;20242;-88
2024/02/18 08:41:36;;;;;;;17.80;12.30;;;;;;;;;;5082989;28;20203;-89
2024/02/18 08:44:03;;;;;;;42.27;23.77;;;;;;;;;;5071391;28;20220;-87
2024/02/18 08:46:30;;;;;;;17.17;13.40;;;;;;;;;;5107256;28;20193;-86
2024/02/18 08:48:58;;;;;;;28.07;18.77;;;;;;;;;;5087101;28;20210;-86
2024/02/18 08:51:24;;;;;;;14.67;11.97;;;;;;;;;;5100843;28;20233;-86
2024/02/18 08:53:52;;;;;;;13.33;10.93;;;;;;;;;;5099973;28;20200;-85
2024/02/18 08:56:19;;;;;;;17.70;12.70;;;;;;;;;;5094327;28;20200;-85
2024/02/18 08:58:46;;;;;;;18.47;14.70;;;;;;;;;;5091767;28;20616;-85
2024/02/18 09:01:12;;;;;;;21.67;14.27;;;;;;;;;;5091548;28;20208;-86
2024/02/18 09:03:39;;;;;;;17.47;12.57;;;;;;;;;;5105618;28;20219;-86
2024/02/18 09:06:09;;;;;;;14.70;11.90;;;;;;;;;;5094807;28;20192;-86
2024/02/18 09:08:39;;;;;;;25.73;18.33;;;;;;;;;;5086617;28;20230;-86
2024/02/18 09:11:06;;;;;;;18.30;14.53;;;;;;;;;;5073275;28;20197;-86
2024/02/18 09:13:34;;;;;;;15.13;12.47;;;;;;;;;;5073637;28;20690;-85
2024/02/18 09:16:01;;;;;;;12.47;11.10;;;;;;;;;;5088429;28;20192;-85
2024/02/18 09:18:27;;;;;;;21.47;15.30;;;;;;;;;;5115238;28;20608;-85
2024/02/18 09:20:54;;;;;;;16.90;14.30;;;;;;;;;;5114574;28;20631;-85
2024/02/18 09:23:22;;;;;;;13.77;10.73;;;;;;;;;;5093368;28;20277;-85
2024/02/18 09:25:49;;;;;;;13.43;10.73;;;;;;;;;;5092909;28;20651;-85
2024/02/18 09:28:16;;;;;;;15.87;12.10;;;;;;;;;;5090916;28;20262;-86
2024/02/18 09:30:43;;;;;;;14.83;12.50;;;;;;;;;;5073009;28;20655;-85
2024/02/18 09:33:09;;;;;;;16.63;13.23;;;;;;;;;;5073438;28;20320;-85
2024/02/18 09:35:36;;;;;;;16.27;14.13;;;;;;;;;;5072540;28;20201;-86
2024/02/18 09:38:08;;;;;;;14.67;12.67;;;;;;;;;;5093575;28;20196;-84
2024/02/18 09:40:36;;;;;;;18.53;12.23;;;;;;;;;;5092664;28;20219;-85
2024/02/18 09:43:03;;;;;;;15.33;12.30;;;;;;;;;;5093281;28;20204;-85
2024/02/18 09:45:32;;;;;;;13.63;11.57;;;;;;;;;;5093374;28;20204;-84
2024/02/18 09:48:01;;;;;;;13.47;11.23;;;;;;;;;;5093448;28;20258;-81
2024/02/18 09:50:31;;;;;;;11.90;10.43;;;;;;;;;;5093021;28;20283;-81
2024/02/18 09:52:58;;;;;;;15.73;11.87;;;;;;;;;;5091831;28;20566;-80
2024/02/18 09:55:24;;;;;;;12.60;10.50;;;;;;;;;;5092988;28;20212;-81
2024/02/18 09:57:53;;;;;;;21.70;12.77;;;;;;;;;;5083822;28;20211;-81
2024/02/18 10:00:20;;;;;;;19.57;14.50;;;;;;;;;;5072917;28;20608;-81
2024/02/18 10:02:47;;;;;;;24.37;18.93;;;;;;;;;;5073195;28;20288;-81
2024/02/18 10:05:14;;;;;;;19.27;13.83;;;;;;;;;;5073496;28;20220;-81
2024/02/18 10:07:40;;;;;;;15.53;13.03;;;;;;;;;;5085293;28;20199;-81
2024/02/18 10:10:08;;;;;;;19.50;15.73;;;;;;;;;;5091909;28;20203;-85
2024/02/18 10:12:35;;;;;;;18.67;14.43;;;;;;;;;;5091839;28;20667;-81
2024/02/18 10:15:04;;;;;;;27.07;19.33;;;;;;;;;;5093167;28;20253;-80
2024/02/18 10:17:31;;;;;;;50.97;30.47;;;;;;;;;;5091872;28;20215;-82
2024/02/18 10:19:59;;;;;;;35.37;23.20;;;;;;;;;;5092492;28;20207;-83
2024/02/18 10:22:26;;;;;;;20.97;16.30;;;;;;;;;;5093182;28;20203;-83
2024/02/18 10:24:53;;;;;;;27.00;20.67;;;;;;;;;;5092993;28;20223;-83
2024/02/18 10:27:20;;;;;;;24.40;20.27;;;;;;;;;;5092714;28;20203;-84
2024/02/18 10:29:48;;;;;;;32.50;25.53;;;;;;;;;;5085294;28;20199;-84
2024/02/18 10:32:16;;;;;;;37.80;26.30;;;;;;;;;;5080536;28;20236;-84
2024/02/18 10:34:44;;;;;;;32.60;21.33;;;;;;;;;;5092629;28;20759;-84
2024/02/18 10:37:18;;;;;;;34.40;26.80;;;;;;;;;;5092375;28;20232;-83
2024/02/18 10:39:46;;;;;;;23.97;20.50;;;;;;;;;;5092677;28;20558;-84
2024/02/18 10:42:13;;;;;;;24.10;20.20;;;;;;;;;;5081827;28;20200;-84
2024/02/18 10:44:42;;;;;;;26.03;21.77;;;;;;;;;;5092277;28;20228;-84
2024/02/18 10:47:09;;;;;;;24.40;18.23;;;;;;;;;;5092637;28;20608;-83
2024/02/18 10:49:40;;;;;;;21.30;16.73;;;;;;;;;;5089912;28;20192;-83
2024/02/18 10:52:16;;;;;;;22.10;16.70;;;;;;;;;;5092380;28;20582;-84
2024/02/18 10:54:49;;;;;;;22.63;17.33;;;;;;;;;;5092164;28;20290;-84
2024/02/18 10:57:19;;;;;;;21.23;17.00;;;;;;;;;;5092087;28;20257;-84
2024/02/18 10:59:50;;;;;;;23.10;17.97;;;;;;;;;;5092663;28;20249;-84
2024/02/18 11:02:23;;;;;;;21.43;17.23;;;;;;;;;;5092635;28;20199;-85
2024/02/18 11:04:51;;;;;;;19.30;17.30;;;;;;;;;;5092524;28;20644;-85
2024/02/18 11:07:18;;;;;;;20.50;17.37;;;;;;;;;;5090422;28;20193;-85
2024/02/18 11:09:46;;;;;;;18.97;14.77;;;;;;;;;;5090550;28;20192;-85
2024/02/18 11:12:14;;;;;;;18.33;15.87;;;;;;;;;;5092046;28;20231;-85
2024/02/18 11:14:41;;;;;;;18.90;15.83;;;;;;;;;;5092360;28;20284;-85
2024/02/18 11:17:09;;;;;;;21.03;16.07;;;;;;;;;;5092307;28;20204;-86
2024/02/18 11:19:37;;;;;;;18.93;16.00;;;;;;;;;;5090645;28;20203;-84
2024/02/18 11:22:09;;;;;;;22.13;16.17;;;;;;;;;;5091174;28;20200;-93
2024/02/18 11:24:36;;;;;;;30.57;23.03;;;;;;;;;;5103300;28;20224;-86
2024/02/18 11:27:03;;;;;;;19.73;14.87;;;;;;;;;;5095396;28;20192;-85
2024/02/18 11:29:30;;;;;;;22.73;17.40;;;;;;;;;;5095502;28;20204;-85
2024/02/18 11:31:56;;;;;;;15.87;13.87;;;;;;;;;;5095418;28;20573;-86
2024/02/18 11:34:23;;;;;;;19.60;14.80;;;;;;;;;;5095714;28;20223;-86
2024/02/18 11:36:50;;;;;;;17.87;12.77;;;;;;;;;;5095850;28;20196;-85
2024/02/18 11:39:18;;;;;;;15.27;12.53;;;;;;;;;;5095575;28;20196;-86
2024/02/18 11:41:45;;;;;;;16.50;12.53;;;;;;;;;;5096230;28;20204;-85
2024/02/18 11:44:13;;;;;;;24.23;15.23;;;;;;;;;;5077138;28;20631;-86
2024/02/18 11:46:40;;;;;;;18.13;14.90;;;;;;;;;;5095682;28;20281;-86
2024/02/18 11:49:10;;;;;;;19.83;16.27;;;;;;;;;;5095576;28;20196;-86
2024/02/18 11:51:37;;;;;;;21.00;16.13;;;;;;;;;;5094557;28;20624;-84
2024/02/18 11:54:06;;;;;;;15.67;12.87;;;;;;;;;;5095797;28;20572;-84
2024/02/18 11:56:35;;;;;;;15.10;11.87;;;;;;;;;;5087106;28;20203;-86
2024/02/18 11:59:03;;;;;;;15.43;11.77;;;;;;;;;;5075268;28;20624;-86
2024/02/18 12:01:30;;;;;;;19.10;12.77;;;;;;;;;;5074935;28;20229;-85
2024/02/18 12:03:58;;;;;;;17.63;14.63;;;;;;;;;;5074331;28;20238;-86
2024/02/18 12:06:25;;;;;;;19.77;14.43;;;;;;;;;;5095270;28;20249;-85
2024/02/18 12:08:52;;;;;;;18.07;14.63;;;;;;;;;;5101407;28;20187;-85
2024/02/18 12:11:19;;;;;;;16.70;12.53;;;;;;;;;;5096292;28;20204;-86
2024/02/18 12:13:48;;;;;;;19.67;12.70;;;;;;;;;;5095157;28;20196;-85
2024/02/18 12:16:16;;;;;;;15.53;13.13;;;;;;;;;;5094184;28;20200;-85
2024/02/18 12:18:43;;;;;;;14.67;12.63;;;;;;;;;;5110236;28;20237;-85
2024/02/18 12:21:14;;;;;;;13.63;12.20;;;;;;;;;;5115371;28;20200;-85
2024/02/18 12:23:43;;;;;;;16.73;14.07;;;;;;;;;;5115275;28;20233;-85
2024/02/18 12:26:12;;;;;;;19.87;14.53;;;;;;;;;;5115490;28;20225;-85
2024/02/18 12:28:39;;;;;;;18.87;15.07;;;;;;;;;;5111402;28;20202;-86
2024/02/18 12:31:11;;;;;;;22.43;14.43;;;;;;;;;;5095127;28;20204;-86
2024/02/18 12:33:39;;;;;;;16.60;13.93;;;;;;;;;;5094851;28;20226;-84
2024/02/18 12:36:06;;;;;;;16.30;12.37;;;;;;;;;;5093357;28;20203;-84
2024/02/18 12:38:33;;;;;;;17.53;13.60;;;;;;;;;;5094851;28;20669;-82
2024/02/18 12:41:00;;;;;;;16.03;13.27;;;;;;;;;;5094201;28;20199;-91
2024/02/18 12:43:28;;;;;;;16.30;11.87;;;;;;;;;;5093979;28;20238;-85
2024/02/18 12:45:55;;;;;;;16.13;13.57;;;;;;;;;;5094721;28;20220;-90
2024/02/18 12:48:23;;;;;;;16.57;13.60;;;;;;;;;;5094700;28;20202;-86
2024/02/18 12:51:08;;;;;;;21.23;17.87;;;;;;;;;;5088709;28;20619;-87
2024/02/18 12:53:36;;;;;;;17.43;14.77;;;;;;;;;;5080033;28;20193;-88
2024/02/18 12:56:03;;;;;;;20.47;16.80;;;;;;;;;;5080010;28;20702;-87
2024/02/18 12:58:30;;;;;;;18.97;14.40;;;;;;;;;;5086379;28;20563;-88
2024/02/18 13:00:56;;;;;;;23.20;15.80;;;;;;;;;;5087758;28;20199;-90
2024/02/18 13:03:25;;;;;;;21.73;16.13;;;;;;;;;;5081377;28;20273;-90
2024/02/18 13:05:52;;;;;;;20.70;15.80;;;;;;;;;;5094100;28;20224;-94
2024/02/18 13:08:18;;;;;;;22.30;16.67;;;;;;;;;;5082968;28;20219;-91
2024/02/18 13:10:45;;;;;;;17.67;13.83;;;;;;;;;;5079576;28;20255;-85
2024/02/18 13:13:12;;;;;;;21.17;17.73;;;;;;;;;;5090220;28;20193;-86
2024/02/18 13:15:39;;;;;;;67.53;42.70;;;;;;;;;;5093659;28;20204;-85
2024/02/18 13:18:06;;;;;;;37.73;25.87;;;;;;;;;;5094176;28;20625;-89
2024/02/18 13:20:34;;;;;;;17.50;14.20;;;;;;;;;;5093959;28;20204;-88
2024/02/18 13:23:01;;;;;;;20.80;17.10;;;;;;;;;;5095026;28;20253;-89
2024/02/18 13:25:28;;;;;;;15.40;12.50;;;;;;;;;;5093376;28;20220;-88
2024/02/18 13:27:55;;;;;;;17.27;13.20;;;;;;;;;;5096266;28;20291;-88
2024/02/18 13:30:22;;;;;;;15.10;12.97;;;;;;;;;;5114218;28;20669;-86
2024/02/18 13:32:49;;;;;;;15.17;12.43;;;;;;;;;;5114741;28;20215;-87
2024/02/18 13:35:16;;;;;;;16.17;12.67;;;;;;;;;;5114116;28;20196;-87
2024/02/18 13:37:44;;;;;;;15.83;12.80;;;;;;;;;;5114639;28;20199;-87
2024/02/18 13:40:11;;;;;;;14.43;12.57;;;;;;;;;;5094436;28;20200;-88
2024/02/18 13:42:43;;;;;;;14.83;13.17;;;;;;;;;;5093658;28;20188;-88
2024/02/18 13:45:11;;;;;;;17.07;13.57;;;;;;;;;;5101145;28;20215;-87
2024/02/18 13:47:39;;;;;;;19.03;12.63;;;;;;;;;;5113640;28;20197;-88
2024/02/18 13:50:10;;;;;;;18.30;14.10;;;;;;;;;;5114169;28;20196;-89
2024/02/18 13:52:38;;;;;;;16.10;13.43;;;;;;;;;;5073489;28;20196;-85
2024/02/18 13:55:07;;;;;;;18.73;13.77;;;;;;;;;;5073262;28;20201;-87
2024/02/18 13:57:34;;;;;;;19.00;14.87;;;;;;;;;;5089495;28;20204;-87
2024/02/18 14:00:01;;;;;;;16.87;13.27;;;;;;;;;;5093893;28;20202;-88
2024/02/18 14:02:27;;;;;;;17.53;13.17;;;;;;;;;;5093912;28;20201;-88
2024/02/18 14:04:54;;;;;;;15.77;12.90;;;;;;;;;;5092894;28;20694;-88
2024/02/18 14:07:23;;;;;;;17.67;12.07;;;;;;;;;;5093217;28;20208;-87
2024/02/18 14:09:50;;;;;;;21.03;13.83;;;;;;;;;;5093226;28;20200;-85
2024/02/18 14:12:18;;;;;;;20.27;14.67;;;;;;;;;;5091820;28;20200;-87
2024/02/18 14:14:48;;;;;;;17.67;13.50;;;;;;;;;;5093008;28;20203;-85
2024/02/18 14:17:15;;;;;;;23.13;15.93;;;;;;;;;;5101277;28;20212;-85
2024/02/18 14:19:41;;;;;;;19.30;15.10;;;;;;;;;;5099728;28;20226;-86
2024/02/18 14:22:08;;;;;;;21.57;15.13;;;;;;;;;;5093407;28;20200;-86
2024/02/18 14:24:35;;;;;;;27.20;13.80;;;;;;;;;;5092505;28;20201;-87
2024/02/18 14:27:02;;;;;;;18.37;14.30;;;;;;;;;;5091792;28;20196;-89
2024/02/18 14:29:31;;;;;;;17.70;13.20;;;;;;;;;;5087717;28;20193;-87
2024/02/18 14:31:57;;;;;;;33.23;24.00;;;;;;;;;;5072248;28;20197;-88
2024/02/18 14:34:24;;;;;;;60.00;35.17;;;;;;;;;;5072691;28;20633;-85